Beallsville, OH (43716)

1:23 PM EDT on July 26, 2014 (GMT -0400)
Jerusalem (KOHJERUS2) Elev 1253 ft | 39.86 °N, 81.11 °W | Change Station

Current weather conditions updated 10 seconds ago

Mostly Cloudy
Mostly Cloudy
79.2 °F
Feels Like 81 °F
N
6.3
Wind Variable Wind from SW
Gusts 10.0 mph

Today is forecast to be Warmer than yesterday. Showers and thunderstorms tonight.

Today
High -- | Low -- °F
--% Chance of Precip.
Yesterday
High -- | Low -- °F
Precip. -- in
6:17 AM 8:43 PM
Waning Crescent, 0% visible
Pressure 29.99 in
Visibility 10.0 miles
Clouds Mostly Cloudy 7500 ft
Heat Index 81 °F
Dew Point 65 °F
Humidity 62%
Rainfall 0.00 in
Snow Depth Not available.
UV 5 out of 12
Pollen 6.30 out of 12
Air Quality Not available.
Flu Activity Not available.
METAR KHLG 261553Z 23006G16KT 10SM BKN075 26/16 A3000 RMK AO2 SLP154 T02560156

More Conditions Fewer Conditions

Pressure 29.99 in
Visibility 10.0 miles
Clouds Mostly Cloudy 7500 ft
Heat Index 81 °F
Dew Point 65 °F
Humidity 62%
Rainfall 0.00 in
Snow Depth Not available.
UV 5 out of 12
Pollen 6.30 out of 12
Air Quality Not available.
Flu Activity Not available.
METAR KHLG 261553Z 23006G16KT 10SM BKN075 26/16 A3000 RMK AO2 SLP154 T02560156

More Conditions Fewer Conditions

10-Day Weather Forecast

Almanac

Astronomy

Jul. 26, 2014 Rise Set
Actual Time 6:17 AM EDT 8:43 PM EDT
Civil Twilight 5:46 AM EDT 9:13 PM EDT
Nautical Twilight 5:08 AM EDT 9:51 PM EDT
Astronomical Twilight 4:25 AM EDT 10:34 PM EDT
Moon 6:08 AM EDT 8:17 PM EDT
Length of Visible Light 15h 27m
Length of Day
14h 25m
Tomorrow will be 1m 48s shorter.
Waning Crescent, 0% of the Moon is Illuminated
Today
Waning Crescent
Jul 26
New
Aug 3
First Quarter
Aug 10
Full
Aug 17
Last Quarter

Today's Extremes

State Highs State Lows

Community

WunderPhotos

Upload Photos

1,737,642 photos uploaded!

Nearby

Snow Depth

Station Depth Elevation
No new snow has been reported.

Earthquake Activity

City Distance Mag. Time & Date
No recent earthquake activity has been reported nearby.
Minimum magnitude displayed is 2.5.

Coastal Water Temperatures

Place Temperature
No Stations Reporting

Nearby Weather Stations

Station Location Temp. Heat Index Dew Point Humidity Wind Precip. Elev Updated Type
Jerusalem, Jerusalem, OH 79.2 °F 81 °F 65 °F 62% SW  at  6.3 mph 0.00 in / hr 1253 ft 1:23 PM EDT Rapid Fire
Shadyside, Ohio, Shadyside, OH 83.3 °F 85 °F 65 °F 55% SSW  at  4.0 mph 0.00 in / hr 669 ft 1:23 PM EDT Rapid Fire
Crawford Heights, Martins Ferry, OH 86.5 °F 89 °F 66 °F 50% SE  at  3.2 mph - / hr 1109 ft 1:15 PM EDT Normal
Kidwell, WV, Sistersville, WV 82.2 °F 85 °F 66 °F 59% South  at  7.8 mph - / hr 738 ft 1:23 PM EDT Normal
Whitmar Hills, Wheeling, WV 79.8 °F 83 °F 70 °F 71% South  at  0.0 mph 0.00 in / hr 1060 ft 1:20 PM EDT Normal

Show More Stations Show Fewer Stations